sensor_id;sensor_type;location;lat;lon;timestamp;temperature;humidity
35381;DHT22;21486;51.916;8.378;2023-08-12T00:01:24;21.00;99.90
35381;DHT22;21486;51.916;8.378;2023-08-12T00:03:51;21.10;99.90
35381;DHT22;21486;51.916;8.378;2023-08-12T00:06:16;21.00;99.90
35381;DHT22;21486;51.916;8.378;2023-08-12T00:08:41;21.20;99.90
35381;DHT22;21486;51.916;8.378;2023-08-12T00:11:07;21.10;99.90
35381;DHT22;21486;51.916;8.378;2023-08-12T00:13:32;21.10;99.90
35381;DHT22;21486;51.916;8.378;2023-08-12T00:15:58;21.00;99.90
35381;DHT22;21486;51.916;8.378;2023-08-12T00:18:23;21.00;99.90
35381;DHT22;21486;51.916;8.378;2023-08-12T00:20:49;21.00;99.90
35381;DHT22;21486;51.916;8.378;2023-08-12T00:23:14;21.10;99.90
35381;DHT22;21486;51.916;8.378;2023-08-12T00:25:40;21.10;99.90
35381;DHT22;21486;51.916;8.378;2023-08-12T00:28:05;21.10;99.90
35381;DHT22;21486;51.916;8.378;2023-08-12T00:33:02;21.10;99.90
35381;DHT22;21486;51.916;8.378;2023-08-12T00:35:27;21.10;99.90
35381;DHT22;21486;51.916;8.378;2023-08-12T00:37:53;21.00;99.90
35381;DHT22;21486;51.916;8.378;2023-08-12T00:40:18;21.00;99.90
35381;DHT22;21486;51.916;8.378;2023-08-12T00:42:44;21.00;99.90
35381;DHT22;21486;51.916;8.378;2023-08-12T00:45:10;20.90;99.90
35381;DHT22;21486;51.916;8.378;2023-08-12T00:47:38;20.90;99.90
35381;DHT22;21486;51.916;8.378;2023-08-12T00:50:04;20.80;99.90
35381;DHT22;21486;51.916;8.378;2023-08-12T00:52:30;20.80;99.90
35381;DHT22;21486;51.916;8.378;2023-08-12T00:54:56;20.80;99.90
35381;DHT22;21486;51.916;8.378;2023-08-12T00:57:21;20.90;99.90
35381;DHT22;21486;51.916;8.378;2023-08-12T00:59:48;21.00;99.90
35381;DHT22;21486;51.916;8.378;2023-08-12T01:02:14;21.00;99.90
35381;DHT22;21486;51.916;8.378;2023-08-12T01:04:40;21.10;99.90
35381;DHT22;21486;51.916;8.378;2023-08-12T01:07:05;21.30;99.90
35381;DHT22;21486;51.916;8.378;2023-08-12T01:09:32;21.20;99.90
35381;DHT22;21486;51.916;8.378;2023-08-12T01:12:06;21.20;99.90
35381;DHT22;21486;51.916;8.378;2023-08-12T01:14:59;21.30;99.90
35381;DHT22;21486;51.916;8.378;2023-08-12T01:17:28;21.30;99.90
35381;DHT22;21486;51.916;8.378;2023-08-12T01:19:55;21.10;99.90
35381;DHT22;21486;51.916;8.378;2023-08-12T01:22:23;21.00;99.90
35381;DHT22;21486;51.916;8.378;2023-08-12T01:24:51;21.00;99.90
35381;DHT22;21486;51.916;8.378;2023-08-12T01:27:17;21.10;99.90
35381;DHT22;21486;51.916;8.378;2023-08-12T01:29:48;20.90;99.90
35381;DHT22;21486;51.916;8.378;2023-08-12T01:37:28;20.70;99.90
35381;DHT22;21486;51.916;8.378;2023-08-12T01:39:55;20.60;99.90
35381;DHT22;21486;51.916;8.378;2023-08-12T01:42:23;20.50;99.90
35381;DHT22;21486;51.916;8.378;2023-08-12T01:44:49;20.40;99.90
35381;DHT22;21486;51.916;8.378;2023-08-12T01:47:15;20.30;99.90
35381;DHT22;21486;51.916;8.378;2023-08-12T01:49:41;20.30;99.90
35381;DHT22;21486;51.916;8.378;2023-08-12T01:52:06;20.20;99.90
35381;DHT22;21486;51.916;8.378;2023-08-12T01:54:32;20.30;99.90
35381;DHT22;21486;51.916;8.378;2023-08-12T01:57:03;20.30;99.90
35381;DHT22;21486;51.916;8.378;2023-08-12T01:59:36;20.30;99.90
35381;DHT22;21486;51.916;8.378;2023-08-12T02:02:02;20.50;99.90
35381;DHT22;21486;51.916;8.378;2023-08-12T02:04:49;20.30;99.90
35381;DHT22;21486;51.916;8.378;2023-08-12T02:07:15;20.20;99.90
35381;DHT22;21486;51.916;8.378;2023-08-12T02:09:40;20.10;99.90
35381;DHT22;21486;51.916;8.378;2023-08-12T02:12:06;20.10;99.90
35381;DHT22;21486;51.916;8.378;2023-08-12T02:14:32;20.00;99.90
35381;DHT22;21486;51.916;8.378;2023-08-12T02:16:57;20.00;99.90
35381;DHT22;21486;51.916;8.378;2023-08-12T02:19:23;20.00;99.90
35381;DHT22;21486;51.916;8.378;2023-08-12T02:21:48;20.00;99.90
35381;DHT22;21486;51.916;8.378;2023-08-12T02:24:14;20.00;99.90
35381;DHT22;21486;51.916;8.378;2023-08-12T02:26:40;20.00;99.90
35381;DHT22;21486;51.916;8.378;2023-08-12T02:29:05;20.00;99.90
35381;DHT22;21486;51.916;8.378;2023-08-12T02:31:31;20.00;99.90
35381;DHT22;21486;51.916;8.378;2023-08-12T02:33:56;20.00;99.90
35381;DHT22;21486;51.916;8.378;2023-08-12T02:36:22;19.90;99.90
35381;DHT22;21486;51.916;8.378;2023-08-12T02:38:47;19.80;99.90
35381;DHT22;21486;51.916;8.378;2023-08-12T02:41:13;19.80;99.90
35381;DHT22;21486;51.916;8.378;2023-08-12T02:43:38;19.80;99.90
35381;DHT22;21486;51.916;8.378;2023-08-12T02:46:04;19.90;99.90
35381;DHT22;21486;51.916;8.378;2023-08-12T02:48:29;19.90;99.90
35381;DHT22;21486;51.916;8.378;2023-08-12T02:50:55;19.80;99.90
35381;DHT22;21486;51.916;8.378;2023-08-12T02:53:20;19.70;99.90
35381;DHT22;21486;51.916;8.378;2023-08-12T02:55:46;19.70;99.90
35381;DHT22;21486;51.916;8.378;2023-08-12T02:58:11;19.70;99.90
35381;DHT22;21486;51.916;8.378;2023-08-12T03:00:40;19.70;99.90
35381;DHT22;21486;51.916;8.378;2023-08-12T03:03:06;19.70;99.90
35381;DHT22;21486;51.916;8.378;2023-08-12T03:05:32;19.70;99.90
35381;DHT22;21486;51.916;8.378;2023-08-12T03:07:58;19.70;99.90
35381;DHT22;21486;51.916;8.378;2023-08-12T03:10:26;19.70;99.90
35381;DHT22;21486;51.916;8.378;2023-08-12T03:12:52;19.70;99.90
35381;DHT22;21486;51.916;8.378;2023-08-12T03:15:18;19.70;99.90
35381;DHT22;21486;51.916;8.378;2023-08-12T03:17:44;19.60;99.90
35381;DHT22;21486;51.916;8.378;2023-08-12T03:20:10;19.50;99.90
35381;DHT22;21486;51.916;8.378;2023-08-12T03:22:36;19.50;99.90
35381;DHT22;21486;51.916;8.378;2023-08-12T03:25:03;19.50;99.90
35381;DHT22;21486;51.916;8.378;2023-08-12T03:27:29;19.50;99.90
35381;DHT22;21486;51.916;8.378;2023-08-12T03:29:54;19.60;99.90
35381;DHT22;21486;51.916;8.378;2023-08-12T03:32:20;19.60;99.90
35381;DHT22;21486;51.916;8.378;2023-08-12T03:34:45;19.50;99.90
35381;DHT22;21486;51.916;8.378;2023-08-12T03:37:11;19.50;99.90
35381;DHT22;21486;51.916;8.378;2023-08-12T03:39:36;19.60;99.90
35381;DHT22;21486;51.916;8.378;2023-08-12T03:42:02;19.60;99.90
35381;DHT22;21486;51.916;8.378;2023-08-12T03:44:28;19.60;99.90
35381;DHT22;21486;51.916;8.378;2023-08-12T03:46:53;19.60;99.90
35381;DHT22;21486;51.916;8.378;2023-08-12T03:49:19;19.50;99.90
35381;DHT22;21486;51.916;8.378;2023-08-12T03:51:44;19.50;99.90
35381;DHT22;21486;51.916;8.378;2023-08-12T03:54:10;19.50;99.90
35381;DHT22;21486;51.916;8.378;2023-08-12T03:56:35;19.50;99.90
35381;DHT22;21486;51.916;8.378;2023-08-12T03:59:01;19.50;99.90
35381;DHT22;21486;51.916;8.378;2023-08-12T04:01:26;19.60;99.90
35381;DHT22;21486;51.916;8.378;2023-08-12T04:03:53;19.60;99.90
35381;DHT22;21486;51.916;8.378;2023-08-12T04:06:18;19.50;99.90
35381;DHT22;21486;51.916;8.378;2023-08-12T04:08:44;19.50;99.90
35381;DHT22;21486;51.916;8.378;2023-08-12T04:11:09;19.50;99.90
35381;DHT22;21486;51.916;8.378;2023-08-12T04:13:35;19.40;99.90
35381;DHT22;21486;51.916;8.378;2023-08-12T04:16:00;19.50;99.90
35381;DHT22;21486;51.916;8.378;2023-08-12T04:18:26;19.50;99.90
35381;DHT22;21486;51.916;8.378;2023-08-12T04:20:52;19.40;99.90
35381;DHT22;21486;51.916;8.378;2023-08-12T04:23:18;19.40;99.90
35381;DHT22;21486;51.916;8.378;2023-08-12T04:25:48;19.50;99.90
35381;DHT22;21486;51.916;8.378;2023-08-12T04:28:14;19.40;99.90
35381;DHT22;21486;51.916;8.378;2023-08-12T04:30:42;19.50;99.90
35381;DHT22;21486;51.916;8.378;2023-08-12T04:33:07;19.50;99.90
35381;DHT22;21486;51.916;8.378;2023-08-12T04:35:33;19.40;99.90
35381;DHT22;21486;51.916;8.378;2023-08-12T04:37:58;19.50;99.90
35381;DHT22;21486;51.916;8.378;2023-08-12T04:40:24;19.40;99.90
35381;DHT22;21486;51.916;8.378;2023-08-12T04:42:49;19.50;99.90
35381;DHT22;21486;51.916;8.378;2023-08-12T04:45:15;19.50;99.90
35381;DHT22;21486;51.916;8.378;2023-08-12T04:47:40;19.50;99.90
35381;DHT22;21486;51.916;8.378;2023-08-12T04:50:06;19.50;99.90
35381;DHT22;21486;51.916;8.378;2023-08-12T04:52:32;19.50;99.90
35381;DHT22;21486;51.916;8.378;2023-08-12T04:54:57;19.60;99.90
35381;DHT22;21486;51.916;8.378;2023-08-12T04:57:23;19.50;99.90
35381;DHT22;21486;51.916;8.378;2023-08-12T04:59:49;19.50;99.90
35381;DHT22;21486;51.916;8.378;2023-08-12T05:02:14;19.50;99.90
35381;DHT22;21486;51.916;8.378;2023-08-12T05:04:40;19.50;99.90
35381;DHT22;21486;51.916;8.378;2023-08-12T05:07:05;19.50;99.90
35381;DHT22;21486;51.916;8.378;2023-08-12T05:09:31;19.50;99.90
35381;DHT22;21486;51.916;8.378;2023-08-12T05:11:57;19.50;99.90
35381;DHT22;21486;51.916;8.378;2023-08-12T05:14:22;19.50;99.90
35381;DHT22;21486;51.916;8.378;2023-08-12T05:16:48;19.50;99.90
35381;DHT22;21486;51.916;8.378;2023-08-12T05:19:13;19.60;99.90
35381;DHT22;21486;51.916;8.378;2023-08-12T05:21:39;19.50;99.90
35381;DHT22;21486;51.916;8.378;2023-08-12T05:24:04;19.60;99.90
35381;DHT22;21486;51.916;8.378;2023-08-12T05:26:32;19.70;99.90
35381;DHT22;21486;51.916;8.378;2023-08-12T05:28:57;19.80;99.90
35381;DHT22;21486;51.916;8.378;2023-08-12T05:31:23;19.90;99.90
35381;DHT22;21486;51.916;8.378;2023-08-12T05:33:48;20.00;99.90
35381;DHT22;21486;51.916;8.378;2023-08-12T05:36:14;20.00;99.90
35381;DHT22;21486;51.916;8.378;2023-08-12T05:38:39;20.10;99.90
35381;DHT22;21486;51.916;8.378;2023-08-12T05:41:05;20.10;99.90
35381;DHT22;21486;51.916;8.378;2023-08-12T05:43:32;20.30;99.90
35381;DHT22;21486;51.916;8.378;2023-08-12T05:45:58;20.30;99.90
35381;DHT22;21486;51.916;8.378;2023-08-12T05:48:23;20.40;99.90
35381;DHT22;21486;51.916;8.378;2023-08-12T05:50:49;20.60;99.90
35381;DHT22;21486;51.916;8.378;2023-08-12T05:53:14;20.50;99.90
35381;DHT22;21486;51.916;8.378;2023-08-12T05:55:40;20.40;99.90
35381;DHT22;21486;51.916;8.378;2023-08-12T05:58:05;20.40;99.90
35381;DHT22;21486;51.916;8.378;2023-08-12T06:00:31;20.50;99.90
35381;DHT22;21486;51.916;8.378;2023-08-12T06:02:57;20.40;99.90
35381;DHT22;21486;51.916;8.378;2023-08-12T06:05:22;20.40;99.90
35381;DHT22;21486;51.916;8.378;2023-08-12T06:07:48;20.20;99.90
35381;DHT22;21486;51.916;8.378;2023-08-12T06:10:13;20.40;99.90
35381;DHT22;21486;51.916;8.378;2023-08-12T06:12:39;20.40;99.90
35381;DHT22;21486;51.916;8.378;2023-08-12T06:15:05;20.30;99.90
35381;DHT22;21486;51.916;8.378;2023-08-12T06:17:30;20.30;99.90
35381;DHT22;21486;51.916;8.378;2023-08-12T06:19:56;20.40;99.90
35381;DHT22;21486;51.916;8.378;2023-08-12T06:22:22;20.60;99.90
35381;DHT22;21486;51.916;8.378;2023-08-12T06:24:47;20.60;99.90
35381;DHT22;21486;51.916;8.378;2023-08-12T06:27:13;20.70;99.90
35381;DHT22;21486;51.916;8.378;2023-08-12T06:29:38;20.70;99.90
35381;DHT22;21486;51.916;8.378;2023-08-12T06:32:04;20.80;99.90
35381;DHT22;21486;51.916;8.378;2023-08-12T06:34:29;20.90;99.90
35381;DHT22;21486;51.916;8.378;2023-08-12T06:36:55;21.10;99.90
35381;DHT22;21486;51.916;8.378;2023-08-12T06:39:21;21.30;99.90
35381;DHT22;21486;51.916;8.378;2023-08-12T06:41:46;21.30;99.90
35381;DHT22;21486;51.916;8.378;2023-08-12T06:44:12;21.40;99.90
35381;DHT22;21486;51.916;8.378;2023-08-12T06:46:37;21.30;99.90
35381;DHT22;21486;51.916;8.378;2023-08-12T06:49:03;21.20;99.90
35381;DHT22;21486;51.916;8.378;2023-08-12T06:51:28;21.30;99.90
35381;DHT22;21486;51.916;8.378;2023-08-12T06:53:54;21.30;99.90
35381;DHT22;21486;51.916;8.378;2023-08-12T06:56:19;21.40;99.90
35381;DHT22;21486;51.916;8.378;2023-08-12T06:58:45;21.70;99.90
35381;DHT22;21486;51.916;8.378;2023-08-12T07:01:11;21.70;99.90
35381;DHT22;21486;51.916;8.378;2023-08-12T07:03:36;21.70;99.90
35381;DHT22;21486;51.916;8.378;2023-08-12T07:06:02;21.60;99.90
35381;DHT22;21486;51.916;8.378;2023-08-12T07:08:27;21.60;99.90
35381;DHT22;21486;51.916;8.378;2023-08-12T07:10:53;21.50;99.90
35381;DHT22;21486;51.916;8.378;2023-08-12T07:13:18;21.60;99.90
35381;DHT22;21486;51.916;8.378;2023-08-12T07:15:44;21.80;99.90
35381;DHT22;21486;51.916;8.378;2023-08-12T07:18:10;22.10;99.90
35381;DHT22;21486;51.916;8.378;2023-08-12T07:20:35;22.40;99.90
35381;DHT22;21486;51.916;8.378;2023-08-12T07:23:01;22.70;99.90
35381;DHT22;21486;51.916;8.378;2023-08-12T07:25:26;22.70;99.90
35381;DHT22;21486;51.916;8.378;2023-08-12T07:27:52;23.10;99.90
35381;DHT22;21486;51.916;8.378;2023-08-12T07:30:17;23.20;99.90
35381;DHT22;21486;51.916;8.378;2023-08-12T07:32:43;23.20;99.90
35381;DHT22;21486;51.916;8.378;2023-08-12T07:35:09;23.30;99.90
35381;DHT22;21486;51.916;8.378;2023-08-12T07:37:34;23.30;99.90
35381;DHT22;21486;51.916;8.378;2023-08-12T07:40:00;22.60;99.90
35381;DHT22;21486;51.916;8.378;2023-08-12T07:42:26;22.40;99.90
35381;DHT22;21486;51.916;8.378;2023-08-12T07:44:52;21.90;99.90
35381;DHT22;21486;51.916;8.378;2023-08-12T07:47:17;21.90;99.90
35381;DHT22;21486;51.916;8.378;2023-08-12T07:49:43;21.90;99.90
35381;DHT22;21486;51.916;8.378;2023-08-12T07:52:09;21.90;99.90
35381;DHT22;21486;51.916;8.378;2023-08-12T07:54:35;21.70;99.90
35381;DHT22;21486;51.916;8.378;2023-08-12T07:57:01;21.60;99.90
35381;DHT22;21486;51.916;8.378;2023-08-12T07:59:27;21.50;99.90
35381;DHT22;21486;51.916;8.378;2023-08-12T08:01:52;21.40;99.90
35381;DHT22;21486;51.916;8.378;2023-08-12T08:04:18;21.50;99.90
35381;DHT22;21486;51.916;8.378;2023-08-12T08:06:44;21.60;99.90
35381;DHT22;21486;51.916;8.378;2023-08-12T08:09:09;21.60;99.90
35381;DHT22;21486;51.916;8.378;2023-08-12T08:11:36;21.80;99.90
35381;DHT22;21486;51.916;8.378;2023-08-12T08:14:01;21.70;99.90
35381;DHT22;21486;51.916;8.378;2023-08-12T08:16:27;21.70;99.90
35381;DHT22;21486;51.916;8.378;2023-08-12T08:18:53;21.70;99.90
35381;DHT22;21486;51.916;8.378;2023-08-12T08:21:18;21.50;99.90
35381;DHT22;21486;51.916;8.378;2023-08-12T08:23:45;21.40;99.90
35381;DHT22;21486;51.916;8.378;2023-08-12T08:26:12;21.30;99.90
35381;DHT22;21486;51.916;8.378;2023-08-12T08:28:38;21.20;99.90
35381;DHT22;21486;51.916;8.378;2023-08-12T08:31:04;21.20;99.90
35381;DHT22;21486;51.916;8.378;2023-08-12T08:33:30;21.20;99.90
35381;DHT22;21486;51.916;8.378;2023-08-12T08:35:55;21.10;99.90
35381;DHT22;21486;51.916;8.378;2023-08-12T08:38:21;21.10;99.90
35381;DHT22;21486;51.916;8.378;2023-08-12T08:40:49;21.10;99.90
35381;DHT22;21486;51.916;8.378;2023-08-12T08:43:20;21.00;99.90
35381;DHT22;21486;51.916;8.378;2023-08-12T08:45:50;21.10;99.90
35381;DHT22;21486;51.916;8.378;2023-08-12T08:48:17;20.90;99.90
35381;DHT22;21486;51.916;8.378;2023-08-12T08:50:44;21.00;99.90
35381;DHT22;21486;51.916;8.378;2023-08-12T08:53:12;20.90;99.90
35381;DHT22;21486;51.916;8.378;2023-08-12T08:55:44;21.00;99.90
35381;DHT22;21486;51.916;8.378;2023-08-12T08:58:10;21.20;99.90
35381;DHT22;21486;51.916;8.378;2023-08-12T09:00:37;21.20;99.90
35381;DHT22;21486;51.916;8.378;2023-08-12T09:03:05;21.40;99.90
35381;DHT22;21486;51.916;8.378;2023-08-12T09:05:31;21.40;99.90
35381;DHT22;21486;51.916;8.378;2023-08-12T09:07:58;21.60;99.90
35381;DHT22;21486;51.916;8.378;2023-08-12T09:10:26;21.80;99.90
35381;DHT22;21486;51.916;8.378;2023-08-12T09:12:54;22.10;99.90
35381;DHT22;21486;51.916;8.378;2023-08-12T09:15:20;22.70;99.90
35381;DHT22;21486;51.916;8.378;2023-08-12T09:17:46;23.20;99.90
35381;DHT22;21486;51.916;8.378;2023-08-12T09:20:11;23.70;99.90
35381;DHT22;21486;51.916;8.378;2023-08-12T09:22:38;23.70;99.90
35381;DHT22;21486;51.916;8.378;2023-08-12T09:25:05;23.20;99.90
35381;DHT22;21486;51.916;8.378;2023-08-12T09:27:32;23.30;99.90
35381;DHT22;21486;51.916;8.378;2023-08-12T09:29:58;23.10;99.90
35381;DHT22;21486;51.916;8.378;2023-08-12T09:32:24;23.30;99.90
35381;DHT22;21486;51.916;8.378;2023-08-12T09:34:51;24.00;99.90
35381;DHT22;21486;51.916;8.378;2023-08-12T09:37:59;24.70;99.90
35381;DHT22;21486;51.916;8.378;2023-08-12T09:43:24;25.70;99.90
35381;DHT22;21486;51.916;8.378;2023-08-12T09:45:56;26.00;99.90
35381;DHT22;21486;51.916;8.378;2023-08-12T09:48:23;25.60;99.90
35381;DHT22;21486;51.916;8.378;2023-08-12T09:50:49;25.30;99.90
35381;DHT22;21486;51.916;8.378;2023-08-12T09:53:15;25.20;99.90
35381;DHT22;21486;51.916;8.378;2023-08-12T09:55:42;25.30;99.90
35381;DHT22;21486;51.916;8.378;2023-08-12T09:58:09;25.00;99.90
35381;DHT22;21486;51.916;8.378;2023-08-12T10:00:35;24.80;99.90
35381;DHT22;21486;51.916;8.378;2023-08-12T10:03:02;24.40;99.90
35381;DHT22;21486;51.916;8.378;2023-08-12T10:05:31;24.40;99.90
35381;DHT22;21486;51.916;8.378;2023-08-12T10:07:57;24.80;99.90
35381;DHT22;21486;51.916;8.378;2023-08-12T10:10:39;25.50;99.90
35381;DHT22;21486;51.916;8.378;2023-08-12T10:13:26;26.40;99.90
35381;DHT22;21486;51.916;8.378;2023-08-12T10:15:52;26.40;99.90
35381;DHT22;21486;51.916;8.378;2023-08-12T10:18:18;26.00;99.90
35381;DHT22;21486;51.916;8.378;2023-08-12T10:20:45;25.70;99.90
35381;DHT22;21486;51.916;8.378;2023-08-12T10:23:16;25.10;99.90
35381;DHT22;21486;51.916;8.378;2023-08-12T10:25:44;24.70;99.90
35381;DHT22;21486;51.916;8.378;2023-08-12T10:28:10;24.30;99.90
35381;DHT22;21486;51.916;8.378;2023-08-12T10:30:36;24.20;99.90
35381;DHT22;21486;51.916;8.378;2023-08-12T10:33:01;24.00;99.90
35381;DHT22;21486;51.916;8.378;2023-08-12T10:35:47;23.70;99.90
35381;DHT22;21486;51.916;8.378;2023-08-12T10:38:19;23.60;99.90
35381;DHT22;21486;51.916;8.378;2023-08-12T10:40:45;23.70;99.90
35381;DHT22;21486;51.916;8.378;2023-08-12T10:43:13;23.70;99.90
35381;DHT22;21486;51.916;8.378;2023-08-12T10:50:34;23.90;99.90
35381;DHT22;21486;51.916;8.378;2023-08-12T10:53:26;24.10;99.90
35381;DHT22;21486;51.916;8.378;2023-08-12T10:56:00;24.60;99.90
35381;DHT22;21486;51.916;8.378;2023-08-12T10:58:45;24.90;99.90
35381;DHT22;21486;51.916;8.378;2023-08-12T11:01:16;24.90;99.90
35381;DHT22;21486;51.916;8.378;2023-08-12T11:03:43;25.00;99.90
35381;DHT22;21486;51.916;8.378;2023-08-12T11:06:12;25.10;99.90
35381;DHT22;21486;51.916;8.378;2023-08-12T11:08:48;25.10;99.90
35381;DHT22;21486;51.916;8.378;2023-08-12T11:11:23;25.50;99.90
35381;DHT22;21486;51.916;8.378;2023-08-12T11:13:58;25.80;99.90
35381;DHT22;21486;51.916;8.378;2023-08-12T11:16:37;26.00;99.90
35381;DHT22;21486;51.916;8.378;2023-08-12T11:19:03;25.80;99.90
35381;DHT22;21486;51.916;8.378;2023-08-12T11:21:29;25.60;99.90
35381;DHT22;21486;51.916;8.378;2023-08-12T11:23:55;25.30;99.90
35381;DHT22;21486;51.916;8.378;2023-08-12T11:26:23;25.00;99.90
35381;DHT22;21486;51.916;8.378;2023-08-12T11:28:49;24.80;99.90
35381;DHT22;21486;51.916;8.378;2023-08-12T11:31:15;24.70;99.90
35381;DHT22;21486;51.916;8.378;2023-08-12T11:33:41;24.60;99.90
35381;DHT22;21486;51.916;8.378;2023-08-12T11:36:07;24.40;99.90
35381;DHT22;21486;51.916;8.378;2023-08-12T11:38:33;24.20;99.90
35381;DHT22;21486;51.916;8.378;2023-08-12T11:41:01;24.40;99.90
35381;DHT22;21486;51.916;8.378;2023-08-12T11:43:28;24.60;99.90
35381;DHT22;21486;51.916;8.378;2023-08-12T11:45:55;25.40;99.90
35381;DHT22;21486;51.916;8.378;2023-08-12T11:48:21;26.00;99.90
35381;DHT22;21486;51.916;8.378;2023-08-12T11:50:48;26.00;99.90
35381;DHT22;21486;51.916;8.378;2023-08-12T11:53:14;26.10;99.90
35381;DHT22;21486;51.916;8.378;2023-08-12T11:55:39;26.00;99.90
35381;DHT22;21486;51.916;8.378;2023-08-12T11:58:05;26.10;99.90
35381;DHT22;21486;51.916;8.378;2023-08-12T12:00:30;26.10;99.90
35381;DHT22;21486;51.916;8.378;2023-08-12T12:02:56;26.20;99.90
35381;DHT22;21486;51.916;8.378;2023-08-12T12:05:22;26.10;99.90
35381;DHT22;21486;51.916;8.378;2023-08-12T12:07:48;26.10;99.90
35381;DHT22;21486;51.916;8.378;2023-08-12T12:10:18;25.80;99.90
35381;DHT22;21486;51.916;8.378;2023-08-12T12:12:43;25.90;99.90
35381;DHT22;21486;51.916;8.378;2023-08-12T12:15:09;25.70;99.90
35381;DHT22;21486;51.916;8.378;2023-08-12T12:17:39;26.00;99.90
35381;DHT22;21486;51.916;8.378;2023-08-12T12:20:07;25.70;99.90
35381;DHT22;21486;51.916;8.378;2023-08-12T12:22:36;25.50;99.90
35381;DHT22;21486;51.916;8.378;2023-08-12T12:25:10;25.20;99.90
35381;DHT22;21486;51.916;8.378;2023-08-12T12:27:40;24.80;99.90
35381;DHT22;21486;51.916;8.378;2023-08-12T12:30:10;24.70;99.90
35381;DHT22;21486;51.916;8.378;2023-08-12T12:32:36;24.90;99.90
35381;DHT22;21486;51.916;8.378;2023-08-12T12:35:02;24.80;99.90
35381;DHT22;21486;51.916;8.378;2023-08-12T12:37:29;24.80;99.90
35381;DHT22;21486;51.916;8.378;2023-08-12T12:39:55;24.60;99.90
35381;DHT22;21486;51.916;8.378;2023-08-12T12:42:20;24.40;99.90
35381;DHT22;21486;51.916;8.378;2023-08-12T12:44:46;24.40;99.90
35381;DHT22;21486;51.916;8.378;2023-08-12T12:47:12;24.20;99.90
35381;DHT22;21486;51.916;8.378;2023-08-12T12:49:38;24.10;99.90
35381;DHT22;21486;51.916;8.378;2023-08-12T12:52:04;24.10;99.90
35381;DHT22;21486;51.916;8.378;2023-08-12T12:54:30;24.00;99.90
35381;DHT22;21486;51.916;8.378;2023-08-12T12:56:56;24.10;99.90
35381;DHT22;21486;51.916;8.378;2023-08-12T12:59:22;24.00;99.90
35381;DHT22;21486;51.916;8.378;2023-08-12T13:01:48;24.10;99.90
35381;DHT22;21486;51.916;8.378;2023-08-12T13:04:14;24.00;99.90
35381;DHT22;21486;51.916;8.378;2023-08-12T13:06:39;23.90;99.90
35381;DHT22;21486;51.916;8.378;2023-08-12T13:09:05;23.80;99.90
35381;DHT22;21486;51.916;8.378;2023-08-12T13:11:33;23.50;99.90
35381;DHT22;21486;51.916;8.378;2023-08-12T13:14:02;23.30;99.90
35381;DHT22;21486;51.916;8.378;2023-08-12T13:16:28;23.10;99.90
35381;DHT22;21486;51.916;8.378;2023-08-12T13:18:54;22.80;99.90
35381;DHT22;21486;51.916;8.378;2023-08-12T13:21:19;22.50;99.90
35381;DHT22;21486;51.916;8.378;2023-08-12T13:23:45;22.40;99.90
35381;DHT22;21486;51.916;8.378;2023-08-12T13:26:10;22.40;99.90
35381;DHT22;21486;51.916;8.378;2023-08-12T13:28:36;22.50;99.90
35381;DHT22;21486;51.916;8.378;2023-08-12T13:31:01;22.60;99.90
35381;DHT22;21486;51.916;8.378;2023-08-12T13:33:27;22.80;99.90
35381;DHT22;21486;51.916;8.378;2023-08-12T13:35:53;23.00;99.90
35381;DHT22;21486;51.916;8.378;2023-08-12T13:38:19;23.40;99.90
35381;DHT22;21486;51.916;8.378;2023-08-12T13:40:44;23.90;99.90
35381;DHT22;21486;51.916;8.378;2023-08-12T13:43:10;24.00;99.90
35381;DHT22;21486;51.916;8.378;2023-08-12T13:45:35;24.00;99.90
35381;DHT22;21486;51.916;8.378;2023-08-12T13:48:01;24.00;99.90
35381;DHT22;21486;51.916;8.378;2023-08-12T13:50:26;24.10;99.90
35381;DHT22;21486;51.916;8.378;2023-08-12T13:52:52;24.00;99.90
35381;DHT22;21486;51.916;8.378;2023-08-12T13:55:18;24.10;99.90
35381;DHT22;21486;51.916;8.378;2023-08-12T13:57:43;23.90;99.90
35381;DHT22;21486;51.916;8.378;2023-08-12T14:00:09;24.00;99.90
35381;DHT22;21486;51.916;8.378;2023-08-12T14:02:35;24.10;99.90
35381;DHT22;21486;51.916;8.378;2023-08-12T14:05:02;24.20;99.90
35381;DHT22;21486;51.916;8.378;2023-08-12T14:07:28;24.20;99.90
35381;DHT22;21486;51.916;8.378;2023-08-12T14:09:53;24.40;99.90
35381;DHT22;21486;51.916;8.378;2023-08-12T14:12:18;24.50;99.90
35381;DHT22;21486;51.916;8.378;2023-08-12T14:14:44;24.40;99.90
35381;DHT22;21486;51.916;8.378;2023-08-12T14:17:10;24.50;99.90
35381;DHT22;21486;51.916;8.378;2023-08-12T14:19:39;24.40;99.90
35381;DHT22;21486;51.916;8.378;2023-08-12T14:22:04;24.30;99.90
35381;DHT22;21486;51.916;8.378;2023-08-12T14:24:30;24.20;99.90
35381;DHT22;21486;51.916;8.378;2023-08-12T14:26:55;24.30;99.90
35381;DHT22;21486;51.916;8.378;2023-08-12T14:29:21;24.20;99.90
35381;DHT22;21486;51.916;8.378;2023-08-12T14:31:46;23.90;99.90
35381;DHT22;21486;51.916;8.378;2023-08-12T14:34:11;23.70;99.90
35381;DHT22;21486;51.916;8.378;2023-08-12T14:36:37;23.60;99.90
35381;DHT22;21486;51.916;8.378;2023-08-12T14:39:03;23.20;99.90
35381;DHT22;21486;51.916;8.378;2023-08-12T14:41:28;22.50;99.90
35381;DHT22;21486;51.916;8.378;2023-08-12T14:43:54;22.20;99.90
35381;DHT22;21486;51.916;8.378;2023-08-12T14:46:19;21.80;99.90
35381;DHT22;21486;51.916;8.378;2023-08-12T14:48:45;21.80;99.90
35381;DHT22;21486;51.916;8.378;2023-08-12T14:51:10;21.90;99.90
35381;DHT22;21486;51.916;8.378;2023-08-12T14:53:35;21.90;99.90
35381;DHT22;21486;51.916;8.378;2023-08-12T14:56:01;22.10;99.90
35381;DHT22;21486;51.916;8.378;2023-08-12T14:58:26;22.30;99.90
35381;DHT22;21486;51.916;8.378;2023-08-12T15:00:52;22.20;99.90
35381;DHT22;21486;51.916;8.378;2023-08-12T15:03:17;22.10;99.90
35381;DHT22;21486;51.916;8.378;2023-08-12T15:05:43;22.10;99.90
35381;DHT22;21486;51.916;8.378;2023-08-12T15:08:08;22.10;99.90
35381;DHT22;21486;51.916;8.378;2023-08-12T15:10:34;22.10;99.90
35381;DHT22;21486;51.916;8.378;2023-08-12T15:13:00;22.10;99.90
35381;DHT22;21486;51.916;8.378;2023-08-12T15:15:25;22.00;99.90
35381;DHT22;21486;51.916;8.378;2023-08-12T15:17:51;21.90;99.90
35381;DHT22;21486;51.916;8.378;2023-08-12T15:20:16;21.80;99.90
35381;DHT22;21486;51.916;8.378;2023-08-12T15:22:42;21.80;99.90
35381;DHT22;21486;51.916;8.378;2023-08-12T15:25:07;21.90;99.90
35381;DHT22;21486;51.916;8.378;2023-08-12T15:27:33;21.90;99.90
35381;DHT22;21486;51.916;8.378;2023-08-12T15:29:59;21.90;99.90
35381;DHT22;21486;51.916;8.378;2023-08-12T15:32:26;22.00;99.90
35381;DHT22;21486;51.916;8.378;2023-08-12T15:34:51;21.80;99.90
35381;DHT22;21486;51.916;8.378;2023-08-12T15:37:17;21.70;99.90
35381;DHT22;21486;51.916;8.378;2023-08-12T15:39:42;21.70;99.90
35381;DHT22;21486;51.916;8.378;2023-08-12T15:42:08;21.70;99.90